createdAt,value
2019-06-07T00:00:42.307Z,7.27
2019-06-07T00:03:23.992Z,7.30
2019-06-07T00:05:40.935Z,6.50
2019-06-07T00:08:17.080Z,6.00
2019-06-07T00:10:39.519Z,5.00
2019-06-07T00:13:09.559Z,5.93
2019-06-07T00:15:38.184Z,6.83
2019-06-07T00:18:12.252Z,6.10
2019-06-07T00:20:37.003Z,7.53
2019-06-07T00:23:05.438Z,7.93
2019-06-07T00:25:33.871Z,6.40
2019-06-07T00:28:02.309Z,5.43
2019-06-07T00:30:42.386Z,5.90
2019-06-07T00:33:00.913Z,5.20
2019-06-07T00:35:29.339Z,6.47
2019-06-07T00:37:57.799Z,4.97
2019-06-07T00:40:31.722Z,4.90
2019-06-07T00:42:56.391Z,5.40
2019-06-07T00:45:25.007Z,4.93
2019-06-07T00:47:53.476Z,6.10
2019-06-07T00:50:24.092Z,6.67
2019-06-07T00:53:14.699Z,5.73
2019-06-07T00:55:27.066Z,4.87
2019-06-07T00:57:52.396Z,6.03
2019-06-07T01:00:25.337Z,6.10
2019-06-07T01:02:52.595Z,5.70
2019-06-07T01:05:28.145Z,6.17
2019-06-07T01:07:51.197Z,6.80
2019-06-07T01:10:46.315Z,4.90
2019-06-07T01:12:50.257Z,6.87
2019-06-07T01:15:28.549Z,6.67
2019-06-07T01:18:32.870Z,6.20
2019-06-07T01:20:26.284Z,7.77
2019-06-07T01:22:54.353Z,6.90
2019-06-07T01:25:26.208Z,7.00
2019-06-07T01:27:52.940Z,8.70
2019-06-07T01:30:26.487Z,9.10
2019-06-07T01:32:54.250Z,8.73
2019-06-07T01:35:23.864Z,8.40
2019-06-07T01:37:53.003Z,8.93
2019-06-07T01:40:28.838Z,8.20
2019-06-07T01:42:51.606Z,7.20
2019-06-07T01:45:21.327Z,7.50
2019-06-07T01:47:49.908Z,7.63
2019-06-07T01:50:22.578Z,7.60
2019-06-07T01:52:48.709Z,7.00
2019-06-07T01:55:18.827Z,6.57
2019-06-07T01:57:48.725Z,7.53
2019-06-07T02:00:21.650Z,8.30
2019-06-07T02:02:48.904Z,7.20
2019-06-07T02:05:19.138Z,7.63
2019-06-07T02:07:47.743Z,8.40
2019-06-07T02:10:16.838Z,8.60
2019-06-07T02:12:45.251Z,7.60
2019-06-07T02:15:15.024Z,9.20
2019-06-07T02:17:43.455Z,8.93
2019-06-07T02:20:12.047Z,8.30
2019-06-07T02:22:40.486Z,7.90
2019-06-07T02:27:39.215Z,6.47
2019-06-07T02:30:37.272Z,7.53
2019-06-07T02:32:38.640Z,8.13
2019-06-07T02:35:07.525Z,9.50
2019-06-07T02:37:37.188Z,9.03
2019-06-07T02:40:09.167Z,8.83
2019-06-07T02:42:42.250Z,9.67
2019-06-07T02:45:10.719Z,9.20
2019-06-07T02:47:39.670Z,8.47
2019-06-07T02:50:11.793Z,7.90
2019-06-07T02:52:41.456Z,8.07
2019-06-07T02:55:10.850Z,7.63
2019-06-07T02:57:41.862Z,8.57
2019-06-07T03:00:41.801Z,8.23
2019-06-07T03:02:45.570Z,7.80
2019-06-07T03:05:14.253Z,7.77
2019-06-07T03:07:45.367Z,8.20
2019-06-07T03:10:14.267Z,6.73
2019-06-07T03:12:44.321Z,7.40
2019-06-07T03:15:32.154Z,7.20
2019-06-07T03:17:50.660Z,6.83
2019-06-07T03:20:20.889Z,7.47
2019-06-07T03:22:51.079Z,7.67
2019-06-07T03:25:19.577Z,7.60
2019-06-07T03:27:50.184Z,8.57
2019-06-07T03:32:49.335Z,9.17
2019-06-07T03:35:17.754Z,9.10
2019-06-07T03:37:46.186Z,8.20
2019-06-07T03:40:14.748Z,7.60
2019-06-07T03:42:43.197Z,9.57
2019-06-07T03:45:11.699Z,8.20
2019-06-07T03:47:42.592Z,8.67
2019-06-07T03:50:10.354Z,9.37
2019-06-07T03:52:41.264Z,9.20
2019-06-07T03:55:09.032Z,8.20
2019-06-07T03:58:29.226Z,8.37
2019-06-07T04:00:07.952Z,9.83
2019-06-07T04:02:40.829Z,8.97
2019-06-07T04:05:07.323Z,9.80
2019-06-07T04:07:36.939Z,10.83
2019-06-07T04:10:07.145Z,10.50
2019-06-07T04:12:40.037Z,9.80
2019-06-07T04:15:06.176Z,9.10
2019-06-07T04:17:36.433Z,10.23
2019-06-07T04:20:06.279Z,11.40
2019-06-07T04:22:38.844Z,9.57
2019-06-07T04:25:07.945Z,11.17
2019-06-07T04:27:39.231Z,11.73
2019-06-07T04:30:08.364Z,13.47
2019-06-07T04:32:40.585Z,12.90
2019-06-07T04:35:07.905Z,16.90
2019-06-07T04:37:41.024Z,14.10
2019-06-07T04:40:08.440Z,13.47
2019-06-07T04:42:41.399Z,14.30
2019-06-07T04:45:32.340Z,14.90
2019-06-07T04:47:42.607Z,13.77
2019-06-07T04:50:11.527Z,14.00
2019-06-07T04:52:42.803Z,14.87
2019-06-07T04:55:10.251Z,15.00
2019-06-07T04:57:40.382Z,17.80
2019-06-07T05:00:46.302Z,17.80
2019-06-07T05:02:42.412Z,15.77
2019-06-07T05:05:09.454Z,16.20
2019-06-07T05:07:39.976Z,20.80
2019-06-07T05:10:08.221Z,21.23
2019-06-07T05:12:41.538Z,20.00
2019-06-07T05:15:06.828Z,19.67
2019-06-07T05:17:37.013Z,19.93
2019-06-07T05:20:06.555Z,20.33
2019-06-07T05:22:40.041Z,20.47
2019-06-07T05:25:05.944Z,23.90
2019-06-07T05:27:36.440Z,21.23
2019-06-07T05:30:13.546Z,23.73
2019-06-07T05:32:37.611Z,23.23
2019-06-07T05:35:07.467Z,21.83
2019-06-07T05:37:38.029Z,22.77
2019-06-07T05:40:07.929Z,22.77
2019-06-07T05:42:40.224Z,22.23
2019-06-07T05:45:07.118Z,23.77
2019-06-07T05:47:40.108Z,21.10
2019-06-07T05:50:37.905Z,22.63
2019-06-07T05:52:39.887Z,22.00
2019-06-07T05:55:06.982Z,20.07
2019-06-07T05:57:38.062Z,17.73
2019-06-07T06:00:07.300Z,18.80
2019-06-07T06:02:58.645Z,18.60
2019-06-07T06:05:06.544Z,19.00
2019-06-07T06:07:38.862Z,19.70
2019-06-07T06:10:07.946Z,18.43
2019-06-07T06:12:40.595Z,18.87
2019-06-07T06:15:08.414Z,21.07
2019-06-07T06:17:40.655Z,20.00
2019-06-07T06:20:07.738Z,18.90
2019-06-07T06:22:37.412Z,20.90
2019-06-07T06:28:09.064Z,19.20
2019-06-07T06:30:13.681Z,18.43
2019-06-07T06:32:50.739Z,17.67
2019-06-07T06:35:13.909Z,16.17
2019-06-07T06:37:48.973Z,17.43
2019-06-07T06:40:12.987Z,16.93
2019-06-07T06:42:42.233Z,17.10
2019-06-07T06:45:11.551Z,19.17
2019-06-07T06:47:40.754Z,17.83
2019-06-07T06:50:10.380Z,19.90
2019-06-07T06:52:42.261Z,18.17
2019-06-07T06:55:10.073Z,16.07
2019-06-07T06:57:41.463Z,18.00
2019-06-07T07:00:10.747Z,15.43
2019-06-07T07:03:27.126Z,14.57
2019-06-07T07:05:10.794Z,15.70
2019-06-07T07:07:40.284Z,14.37
2019-06-07T07:10:09.549Z,15.20
2019-06-07T07:12:38.242Z,15.13
2019-06-07T07:15:09.297Z,14.57
2019-06-07T07:17:51.028Z,14.73
2019-06-07T07:20:07.878Z,15.60
2019-06-07T07:22:36.316Z,14.03
2019-06-07T07:25:07.079Z,12.30
2019-06-07T07:27:35.638Z,13.83
2019-06-07T07:30:35.284Z,12.70
2019-06-07T07:32:36.655Z,13.37
2019-06-07T07:35:08.154Z,13.50
2019-06-07T07:37:36.585Z,11.07
2019-06-07T07:42:56.679Z,11.17
2019-06-07T07:45:24.681Z,13.30
2019-06-07T07:48:10.564Z,11.10
2019-06-07T07:50:23.304Z,12.93
2019-06-07T07:52:55.956Z,13.17
2019-06-07T07:55:21.923Z,12.50
2019-06-07T07:57:58.124Z,12.53
2019-06-07T08:00:50.024Z,10.67
2019-06-07T08:02:58.486Z,10.20
2019-06-07T08:05:41.517Z,11.07
2019-06-07T08:07:56.726Z,10.07
2019-06-07T08:10:24.187Z,11.00
2019-06-07T08:13:15.861Z,11.50
2019-06-07T08:15:22.929Z,11.20
2019-06-07T08:17:55.999Z,11.00
2019-06-07T08:20:21.764Z,10.10
2019-06-07T08:22:50.192Z,10.60
2019-06-07T08:25:19.077Z,10.70
2019-06-07T08:27:47.600Z,10.57
2019-06-07T08:30:47.219Z,10.47
2019-06-07T08:32:50.984Z,10.67
2019-06-07T08:36:01.283Z,10.33
2019-06-07T08:40:18.445Z,10.33
2019-06-07T08:43:03.204Z,12.00
2019-06-07T08:45:17.793Z,9.50
2019-06-07T08:47:46.243Z,11.20
2019-06-07T08:50:15.318Z,9.40
2019-06-07T08:52:43.789Z,10.17
2019-06-07T08:55:12.407Z,9.53
2019-06-07T08:57:40.852Z,9.83
2019-06-07T09:00:42.540Z,9.80
2019-06-07T09:02:40.785Z,9.20
2019-06-07T09:05:12.413Z,8.90
2019-06-07T09:07:39.674Z,8.50
2019-06-07T09:10:14.104Z,8.67
2019-06-07T09:12:40.403Z,9.70
2019-06-07T09:15:21.427Z,8.60
2019-06-07T09:18:29.299Z,10.00
2019-06-07T09:20:35.159Z,10.43
2019-06-07T09:22:43.133Z,8.70
2019-06-07T09:25:20.630Z,8.93
2019-06-07T09:27:42.839Z,9.57
2019-06-07T09:30:18.405Z,9.23
2019-06-07T09:32:42.217Z,9.00
2019-06-07T09:35:16.937Z,8.60
2019-06-07T09:38:07.364Z,9.37
2019-06-07T09:40:24.862Z,7.70
2019-06-07T09:42:42.521Z,7.27
2019-06-07T09:45:13.740Z,7.80
2019-06-07T09:47:41.298Z,6.90
2019-06-07T09:50:12.366Z,7.87
2019-06-07T09:52:56.921Z,7.77
2019-06-07T09:55:22.996Z,7.57
2019-06-07T09:57:40.427Z,7.33
2019-06-07T10:00:39.220Z,7.20
2019-06-07T10:02:44.148Z,8.03
2019-06-07T10:05:14.327Z,8.07
2019-06-07T10:07:59.566Z,7.30
2019-06-07T10:12:44.066Z,6.87
2019-06-07T10:15:12.648Z,6.83
2019-06-07T10:17:41.277Z,7.10
2019-06-07T10:20:10.082Z,7.00
2019-06-07T10:22:59.410Z,7.10
2019-06-07T10:25:28.069Z,7.40
2019-06-07T10:27:56.496Z,8.03
2019-06-07T10:30:25.005Z,7.23
2019-06-07T10:32:53.459Z,7.43
2019-06-07T10:35:21.870Z,7.30
2019-06-07T10:37:50.336Z,5.47
2019-06-07T10:40:19.054Z,7.00
2019-06-07T10:42:47.542Z,6.60
2019-06-07T10:45:16.212Z,7.70
2019-06-07T10:47:44.657Z,6.33
2019-06-07T10:50:13.718Z,6.70
2019-06-07T10:52:42.168Z,8.27
2019-06-07T10:55:10.930Z,7.40
2019-06-07T10:57:39.432Z,6.57
2019-06-07T11:00:09.404Z,6.73
2019-06-07T11:02:38.270Z,7.50
2019-06-07T11:05:08.149Z,7.20
2019-06-07T11:07:37.195Z,7.07
2019-06-07T11:10:13.366Z,7.17
2019-06-07T11:12:37.473Z,6.80
2019-06-07T11:15:08.867Z,6.90
2019-06-07T11:17:37.567Z,7.20
2019-06-07T11:20:10.283Z,6.53
2019-06-07T11:22:38.935Z,6.40
2019-06-07T11:25:09.103Z,6.83
2019-06-07T11:27:37.957Z,6.57
2019-06-07T11:30:10.523Z,6.60
2019-06-07T11:32:39.171Z,6.60
2019-06-07T11:35:08.639Z,5.80
2019-06-07T11:37:37.073Z,6.80
2019-06-07T11:40:24.007Z,7.20
2019-06-07T11:42:36.881Z,5.87
2019-06-07T11:45:10.235Z,5.57
2019-06-07T11:47:38.775Z,5.90
2019-06-07T11:50:09.455Z,6.60
2019-06-07T11:52:38.224Z,6.50
2019-06-07T11:55:09.065Z,6.10
2019-06-07T11:57:37.911Z,5.73
2019-06-07T12:00:13.631Z,5.50
2019-06-07T12:02:42.178Z,5.43
2019-06-07T12:05:14.855Z,5.77
2019-06-07T12:07:41.091Z,6.07
2019-06-07T12:10:10.849Z,6.20
2019-06-07T12:12:39.502Z,4.67
2019-06-07T12:15:08.815Z,5.80
2019-06-07T12:17:37.376Z,5.00
2019-06-07T12:20:08.793Z,5.03
2019-06-07T12:22:37.187Z,5.07
2019-06-07T12:25:07.166Z,5.30
2019-06-07T12:27:35.658Z,5.97
2019-06-07T12:30:11.160Z,4.80
2019-06-07T12:32:36.888Z,5.17
2019-06-07T12:35:08.597Z,5.00
2019-06-07T12:37:43.875Z,5.80
2019-06-07T12:40:08.442Z,4.80
2019-06-07T12:42:37.299Z,4.97
2019-06-07T12:45:07.535Z,3.50
2019-06-07T12:47:36.027Z,4.53
2019-06-07T12:50:07.504Z,4.60
2019-06-07T12:52:36.067Z,4.33
2019-06-07T12:55:09.383Z,4.50
2019-06-07T12:57:37.798Z,3.80
2019-06-07T13:00:11.078Z,4.70
2019-06-07T13:02:39.502Z,3.97
2019-06-07T13:05:08.797Z,4.03
2019-06-07T13:07:37.217Z,3.63
2019-06-07T13:10:09.336Z,3.57
2019-06-07T13:12:37.759Z,3.50
2019-06-07T13:15:07.271Z,2.90
2019-06-07T13:17:36.340Z,3.13
2019-06-07T13:20:07.707Z,3.13
2019-06-07T13:22:36.285Z,3.40
2019-06-07T13:25:06.144Z,2.70
2019-06-07T13:27:34.574Z,2.70
2019-06-07T13:30:09.909Z,2.60
2019-06-07T13:32:33.792Z,2.77
2019-06-07T13:35:02.376Z,2.77
2019-06-07T13:37:30.812Z,2.93
2019-06-07T13:39:59.320Z,2.70
2019-06-07T13:42:28.632Z,2.57
2019-06-07T13:44:57.268Z,2.90
2019-06-07T13:47:25.729Z,2.90
2019-06-07T13:49:55.658Z,3.00
2019-06-07T13:52:24.214Z,2.50
2019-06-07T13:54:52.648Z,2.63
2019-06-07T13:57:22.239Z,2.83
2019-06-07T13:59:50.889Z,2.80
2019-06-07T14:02:20.660Z,2.73
2019-06-07T14:04:49.339Z,2.30
2019-06-07T14:07:19.059Z,2.53
2019-06-07T14:09:47.785Z,2.80
2019-06-07T14:12:16.211Z,2.50
2019-06-07T14:14:44.727Z,2.07
2019-06-07T14:17:13.171Z,2.63
2019-06-07T14:19:41.589Z,2.70
2019-06-07T14:22:10.103Z,2.40
2019-06-07T14:24:38.522Z,2.60
2019-06-07T14:27:07.037Z,2.43
2019-06-07T14:29:39.236Z,2.43
2019-06-07T14:32:08.240Z,2.60
2019-06-07T14:34:36.940Z,2.20
2019-06-07T14:37:06.130Z,2.87
2019-06-07T14:39:34.589Z,2.50
2019-06-07T14:42:09.146Z,2.80
2019-06-07T14:44:33.886Z,2.70
2019-06-07T14:47:02.646Z,2.57
2019-06-07T14:49:32.542Z,2.10
2019-06-07T14:52:01.276Z,2.90
2019-06-07T14:54:33.441Z,2.40
2019-06-07T14:57:03.031Z,2.20
2019-06-07T14:59:30.464Z,3.00
2019-06-07T15:01:59.142Z,2.10
2019-06-07T15:04:28.586Z,2.50
2019-06-07T15:06:57.220Z,2.30
2019-06-07T15:09:26.896Z,2.40
2019-06-07T15:11:56.112Z,2.60
2019-06-07T15:14:24.594Z,2.50
2019-06-07T15:16:53.038Z,2.10
2019-06-07T15:19:23.971Z,2.23
2019-06-07T15:21:51.722Z,2.40
2019-06-07T15:24:20.156Z,2.37
2019-06-07T15:26:48.617Z,2.87
2019-06-07T15:29:17.144Z,2.97
2019-06-07T15:31:45.651Z,2.27
2019-06-07T15:34:14.079Z,2.10
2019-06-07T15:36:42.515Z,2.80
2019-06-07T15:39:10.946Z,2.80
2019-06-07T15:41:39.898Z,2.73
2019-06-07T15:44:08.484Z,2.40
2019-06-07T15:46:37.967Z,2.07
2019-06-07T15:49:06.729Z,2.10
2019-06-07T15:51:36.549Z,1.97
2019-06-07T15:54:05.519Z,2.40
2019-06-07T15:56:34.678Z,2.47
2019-06-07T15:59:03.284Z,2.33
2019-06-07T16:01:31.726Z,3.20
2019-06-07T16:04:00.183Z,2.60
2019-06-07T16:06:28.706Z,2.67
2019-06-07T16:08:57.199Z,1.93
2019-06-07T16:11:25.644Z,2.60
2019-06-07T16:13:54.131Z,2.20
2019-06-07T16:16:22.712Z,2.07
2019-06-07T16:18:51.126Z,2.10
2019-06-07T16:21:19.589Z,2.43
2019-06-07T16:23:48.154Z,2.90
2019-06-07T16:26:16.912Z,2.40
2019-06-07T16:28:45.341Z,2.87
2019-06-07T16:31:14.056Z,2.50
2019-06-07T16:33:43.189Z,2.80
2019-06-07T16:36:12.034Z,3.33
2019-06-07T16:38:40.445Z,2.87
2019-06-07T16:41:08.889Z,2.87
2019-06-07T16:43:38.550Z,2.80
2019-06-07T16:46:08.552Z,3.17
2019-06-07T16:48:37.155Z,3.00
2019-06-07T16:51:05.645Z,2.67
2019-06-07T16:53:34.100Z,2.60
2019-06-07T16:56:02.572Z,2.57
2019-06-07T16:58:31.046Z,2.43
2019-06-07T17:00:59.492Z,2.70
2019-06-07T17:03:28.192Z,2.83
2019-06-07T17:05:56.619Z,2.90
2019-06-07T17:08:25.056Z,2.50
2019-06-07T17:10:53.478Z,2.53
2019-06-07T17:13:32.910Z,3.10
2019-06-07T17:15:52.078Z,2.70
2019-06-07T17:18:20.504Z,4.53
2019-06-07T17:20:49.424Z,5.50
2019-06-07T17:23:18.090Z,3.20
2019-06-07T17:25:47.519Z,3.33
2019-06-07T17:28:16.107Z,3.60
2019-06-07T17:30:45.976Z,3.10
2019-06-07T17:33:14.580Z,3.63
2019-06-07T17:35:44.659Z,3.60
2019-06-07T17:38:13.266Z,3.10
2019-06-07T17:40:42.721Z,2.83
2019-06-07T17:43:11.320Z,4.10
2019-06-07T17:45:41.186Z,3.33
2019-06-07T17:48:09.822Z,2.53
2019-06-07T17:50:38.468Z,4.30
2019-06-07T17:53:06.894Z,3.77
2019-06-07T17:55:35.400Z,4.10
2019-06-07T17:58:04.334Z,3.93
2019-06-07T18:00:53.161Z,4.90
2019-06-07T18:03:21.937Z,4.20
2019-06-07T18:05:51.406Z,4.47
2019-06-07T18:08:19.946Z,4.53
2019-06-07T18:10:49.893Z,4.30
2019-06-07T18:13:18.574Z,4.37
2019-06-07T18:15:52.823Z,4.80
2019-06-07T18:18:18.117Z,5.23
2019-06-07T18:20:47.201Z,4.87
2019-06-07T18:23:15.930Z,4.33
2019-06-07T18:25:44.354Z,4.33
2019-06-07T18:28:13.140Z,3.10
2019-06-07T18:30:41.630Z,2.90
2019-06-07T18:33:10.099Z,3.10
2019-06-07T18:35:38.526Z,3.00
2019-06-07T18:38:10.442Z,3.43
2019-06-07T18:40:37.128Z,3.40
2019-06-07T18:43:05.621Z,3.00
2019-06-07T18:45:34.113Z,2.83
2019-06-07T18:48:02.568Z,2.40
2019-06-07T18:50:31.004Z,1.70
2019-06-07T18:52:59.502Z,1.13
2019-06-07T18:55:27.930Z,1.20
2019-06-07T18:57:56.606Z,1.30
2019-06-07T19:00:26.036Z,1.50
2019-06-07T19:02:55.999Z,1.30
2019-06-07T19:05:25.097Z,1.20
2019-06-07T19:07:54.692Z,0.90
2019-06-07T19:10:24.053Z,1.20
2019-06-07T19:12:53.189Z,1.00
2019-06-07T19:15:22.493Z,0.80
2019-06-07T19:17:52.149Z,1.20
2019-06-07T19:20:21.323Z,0.83
2019-06-07T19:22:50.183Z,1.20
2019-06-07T19:25:18.880Z,0.83
2019-06-07T19:27:47.299Z,0.80
2019-06-07T19:30:16.178Z,0.90
2019-06-07T19:32:44.619Z,0.83
2019-06-07T19:35:13.801Z,1.30
2019-06-07T19:37:42.220Z,0.93
2019-06-07T19:40:13.813Z,0.97
2019-06-07T19:42:42.235Z,1.30
2019-06-07T19:45:32.098Z,1.37
2019-06-07T19:47:41.223Z,0.90
2019-06-07T19:50:10.139Z,0.80
2019-06-07T19:52:39.532Z,1.77
2019-06-07T19:55:09.981Z,0.90
2019-06-07T19:57:38.852Z,1.23
2019-06-07T20:00:14.095Z,1.10
2019-06-07T20:02:38.557Z,1.07
2019-06-07T20:05:08.784Z,1.50
2019-06-07T20:07:37.211Z,1.27
2019-06-07T20:10:09.642Z,1.23
2019-06-07T20:12:38.079Z,1.00
2019-06-07T20:15:27.297Z,1.10
2019-06-07T20:17:37.500Z,1.17
2019-06-07T20:20:08.904Z,1.10
2019-06-07T20:22:37.523Z,1.00
2019-06-07T20:25:06.512Z,0.80
2019-06-07T20:27:35.017Z,1.23
2019-06-07T20:30:08.587Z,1.03
2019-06-07T20:32:37.107Z,0.90
2019-06-07T20:35:06.262Z,1.50
2019-06-07T20:37:34.702Z,1.27
2019-06-07T20:40:20.719Z,1.10
2019-06-07T20:42:34.739Z,1.03
2019-06-07T20:45:04.005Z,1.10
2019-06-07T20:47:32.497Z,0.90
2019-06-07T20:50:02.270Z,1.10
2019-06-07T20:52:30.849Z,1.20
2019-06-07T20:55:00.491Z,1.00
2019-06-07T20:57:29.006Z,1.00
2019-06-07T20:59:58.705Z,0.90
2019-06-07T21:02:27.233Z,0.97
2019-06-07T21:04:55.676Z,1.40
2019-06-07T21:07:24.088Z,1.17
2019-06-07T21:09:52.551Z,1.30
2019-06-07T21:12:21.042Z,1.10
2019-06-07T21:14:50.251Z,0.97
2019-06-07T21:17:18.674Z,1.03
2019-06-07T21:19:47.139Z,1.40
2019-06-07T21:22:15.569Z,1.50
2019-06-07T21:24:44.005Z,1.20
2019-06-07T21:27:12.432Z,1.17
2019-06-07T21:29:40.859Z,1.47
2019-06-07T21:32:09.630Z,0.80
2019-06-07T21:34:38.205Z,1.00
2019-06-07T21:37:07.774Z,1.10
2019-06-07T21:39:36.354Z,1.20
2019-06-07T21:42:05.981Z,1.20
2019-06-07T21:44:34.604Z,0.97
2019-06-07T21:47:04.117Z,1.00
2019-06-07T21:49:32.748Z,1.00
2019-06-07T21:52:02.413Z,1.20
2019-06-07T21:54:31.079Z,1.20
2019-06-07T21:56:59.511Z,1.10
2019-06-07T21:59:27.938Z,1.10
2019-06-07T22:01:56.366Z,1.47
2019-06-07T22:04:24.795Z,1.00
2019-06-07T22:06:53.222Z,1.20
2019-06-07T22:09:21.665Z,1.33
2019-06-07T22:11:50.106Z,1.37
2019-06-07T22:14:18.543Z,1.43
2019-06-07T22:16:46.966Z,1.27
2019-06-07T22:19:15.390Z,1.10
2019-06-07T22:21:43.826Z,1.10
2019-06-07T22:24:13.106Z,1.10
2019-06-07T22:26:41.675Z,1.00
2019-06-07T22:29:10.308Z,1.10
2019-06-07T22:31:38.828Z,1.20
2019-06-07T22:34:08.664Z,1.03
2019-06-07T22:36:37.317Z,1.13
2019-06-07T22:39:07.545Z,1.00
2019-06-07T22:41:36.080Z,1.20
2019-06-07T22:44:04.502Z,1.77
2019-06-07T22:46:37.403Z,0.97
2019-06-07T22:49:03.200Z,0.97
2019-06-07T22:51:31.639Z,1.23
2019-06-07T22:54:00.308Z,1.10
2019-06-07T22:56:39.279Z,0.93
2019-06-07T22:59:08.054Z,1.20
2019-06-07T23:01:37.866Z,1.00
2019-06-07T23:04:06.289Z,0.97
2019-06-07T23:06:34.736Z,1.00
2019-06-07T23:09:03.278Z,1.00
2019-06-07T23:11:31.735Z,0.90
2019-06-07T23:14:00.243Z,0.93
2019-06-07T23:16:28.667Z,1.10
2019-06-07T23:18:57.119Z,1.00
2019-06-07T23:21:25.550Z,1.17
2019-06-07T23:23:53.985Z,1.27
2019-06-07T23:26:22.490Z,1.00
2019-06-07T23:28:50.906Z,1.20
2019-06-07T23:31:20.764Z,1.20
2019-06-07T23:33:49.308Z,1.10
2019-06-07T23:36:19.232Z,1.30
2019-06-07T23:38:47.755Z,1.43
2019-06-07T23:41:17.630Z,1.30
2019-06-07T23:43:46.107Z,1.17
2019-06-07T23:46:15.314Z,1.00
2019-06-07T23:48:43.804Z,1.13
2019-06-07T23:51:13.525Z,1.13
2019-06-07T23:53:42.013Z,1.17
2019-06-07T23:56:11.679Z,0.97
2019-06-07T23:58:40.252Z,1.10
